Time,TemperatureF,DewpointF,PressureIn,WindDirection,WindDirectionDegrees,WindSpeedMPH,WindSpeedGustMPH,Humidity,HourlyPrecipIn,Conditions,Clouds,dailyrainin,SoftwareType,DateUTC
2013-02-21 00:00:00,76.5,51.0,27.02,SE,135,4.0,5.8,32,0.00,,---,0.00,VWS V14.01,2013-02-21 06:00:00,
2013-02-21 00:05:00,76.5,51.0,27.02,South,184,8.1,8.1,32,0.00,,---,0.00,VWS V14.01,2013-02-21 06:05:00,
2013-02-21 00:10:00,76.5,51.0,27.02,ESE,106,11.0,11.0,32,0.00,,---,0.00,VWS V14.01,2013-02-21 06:10:00,
2013-02-21 00:15:00,76.5,51.0,27.02,SE,137,8.1,10.1,32,0.00,,---,0.00,VWS V14.01,2013-02-21 06:15:00,
2013-02-21 00:20:00,76.5,51.0,27.02,ENE,77,8.7,13.2,32,0.00,,---,0.00,VWS V14.01,2013-02-21 06:20:00,
2013-02-21 00:25:00,76.5,51.0,27.02,ESE,116,16.8,16.8,32,0.00,,---,0.00,VWS V14.01,2013-02-21 06:25:00,
2013-02-21 00:30:00,76.5,51.0,27.02,SSE,159,8.1,8.1,32,0.00,,---,0.00,VWS V14.01,2013-02-21 06:30:00,
2013-02-21 00:35:00,76.5,51.0,27.02,SE,135,5.4,15.4,32,0.00,,---,0.00,VWS V14.01,2013-02-21 06:35:00,
2013-02-21 00:40:00,76.5,51.0,27.02,SE,136,6.3,10.5,32,0.00,,---,0.00,VWS V14.01,2013-02-21 06:40:00,
2013-02-21 00:45:00,76.5,51.0,27.02,ESE,116,5.8,8.1,32,0.00,,---,0.00,VWS V14.01,2013-02-21 06:45:00,
2013-02-21 00:50:00,76.5,51.0,27.02,SE,129,11.9,11.9,32,0.00,,---,0.00,VWS V14.01,2013-02-21 06:50:00,
2013-02-21 00:55:00,76.5,51.0,26.99,SE,139,7.6,7.6,32,0.00,,---,0.00,VWS V14.01,2013-02-21 06:55:00,
2013-02-21 01:00:00,76.5,51.0,26.99,South,182,5.4,8.3,32,0.00,,---,0.00,VWS V14.01,2013-02-21 07:00:00,
2013-02-21 01:05:00,76.5,51.0,26.99,ENE,78,17.4,17.4,32,0.00,,---,0.00,VWS V14.01,2013-02-21 07:05:00,
2013-02-21 01:10:00,76.5,51.0,26.99,East,100,7.6,7.6,32,0.00,,---,0.00,VWS V14.01,2013-02-21 07:10:00,
2013-02-21 01:15:00,76.5,51.0,26.99,ESE,104,10.5,10.5,32,0.00,,---,0.00,VWS V14.01,2013-02-21 07:15:00,
2013-02-21 01:20:00,76.5,51.0,26.99,ESE,120,6.3,8.1,32,0.00,,---,0.00,VWS V14.01,2013-02-21 07:20:00,
2013-02-21 01:25:00,76.5,51.0,26.99,East,96,14.5,14.5,32,0.00,,---,0.00,VWS V14.01,2013-02-21 07:25:00,
2013-02-21 01:30:00,76.5,51.0,26.99,ESE,109,15.4,15.4,32,0.00,,---,0.00,VWS V14.01,2013-02-21 07:30:00,
2013-02-21 01:35:00,76.5,51.0,26.99,SSE,148,8.3,9.2,32,0.00,,---,0.00,VWS V14.01,2013-02-21 07:35:00,
2013-02-21 01:40:00,76.5,51.0,26.99,SSE,149,10.5,10.5,32,0.00,,---,0.00,VWS V14.01,2013-02-21 07:40:00,
2013-02-21 01:45:00,76.5,51.0,26.99,SSE,147,8.1,9.6,32,0.00,,---,0.00,VWS V14.01,2013-02-21 07:45:00,
2013-02-21 01:50:00,76.5,51.0,26.99,ESE,117,5.4,5.4,32,0.00,,---,0.00,VWS V14.01,2013-02-21 07:50:00,
2013-02-21 01:55:00,76.5,51.0,26.99,SE,142,12.3,13.2,32,0.00,,---,0.00,VWS V14.01,2013-02-21 07:55:00,
2013-02-21 02:00:00,76.5,51.0,26.99,ESE,105,8.1,8.1,32,0.00,,---,0.00,VWS V14.01,2013-02-21 08:00:00,
2013-02-21 02:05:00,76.5,51.0,26.99,ESE,110,10.1,10.1,32,0.00,,---,0.00,VWS V14.01,2013-02-21 08:05:00,
2013-02-21 02:10:00,76.5,51.0,26.99,East,92,10.5,10.5,32,0.00,,---,0.00,VWS V14.01,2013-02-21 08:10:00,
2013-02-21 02:15:00,76.5,51.0,26.99,SE,140,10.1,10.1,32,0.00,,---,0.00,VWS V14.01,2013-02-21 08:15:00,
2013-02-21 02:20:00,76.5,51.0,26.99,SE,124,8.3,11.0,32,0.00,,---,0.00,VWS V14.01,2013-02-21 08:20:00,
2013-02-21 02:25:00,76.5,51.0,26.99,East,101,7.6,15.0,32,0.00,,---,0.00,VWS V14.01,2013-02-21 08:25:00,
2013-02-21 02:30:00,76.5,51.0,26.99,ESE,112,8.7,10.1,32,0.00,,---,0.00,VWS V14.01,2013-02-21 08:30:00,
2013-02-21 02:35:00,76.5,51.0,26.99,NE,51,9.2,9.2,32,0.00,,---,0.00,VWS V14.01,2013-02-21 08:35:00,
2013-02-21 02:40:00,76.5,51.0,26.96,SE,136,4.9,8.1,32,0.00,,---,0.00,VWS V14.01,2013-02-21 08:40:00,
2013-02-21 02:45:00,76.5,51.0,26.96,ESE,113,8.3,11.0,32,0.00,,---,0.00,VWS V14.01,2013-02-21 08:45:00,
2013-02-21 02:50:00,76.5,51.0,26.96,East,99,10.1,14.5,32,0.00,,---,0.00,VWS V14.01,2013-02-21 08:50:00,
2013-02-21 02:55:00,76.5,51.0,26.96,SE,134,4.9,13.2,32,0.00,,---,0.00,VWS V14.01,2013-02-21 08:55:00,
2013-02-21 03:00:00,76.5,51.0,26.96,SSE,162,9.2,9.2,32,0.00,,---,0.00,VWS V14.01,2013-02-21 09:00:00,
2013-02-21 03:05:00,76.5,51.0,26.96,SE,124,8.7,8.7,32,0.00,,---,0.00,VWS V14.01,2013-02-21 09:05:00,
2013-02-21 03:10:00,76.5,51.0,26.99,SE,138,7.6,8.3,32,0.00,,---,0.00,VWS V14.01,2013-02-21 09:10:00,
2013-02-21 03:15:00,76.5,51.0,26.99,SSE,157,8.3,8.3,32,0.00,,---,0.00,VWS V14.01,2013-02-21 09:15:00,
2013-02-21 03:20:00,76.5,51.0,26.99,East,89,10.5,13.2,32,0.00,,---,0.00,VWS V14.01,2013-02-21 09:20:00,
2013-02-21 03:25:00,76.5,51.0,26.96,South,169,10.1,10.1,32,0.00,,---,0.00,VWS V14.01,2013-02-21 09:25:00,
2013-02-21 03:30:00,76.5,51.0,26.96,SSE,162,4.0,10.1,32,0.00,,---,0.00,VWS V14.01,2013-02-21 09:30:00,
2013-02-21 03:35:00,76.5,51.0,26.96,East,84,5.4,8.3,32,0.00,,---,0.00,VWS V14.01,2013-02-21 09:35:00,
2013-02-21 03:40:00,76.5,51.0,26.96,SE,128,5.8,12.3,32,0.00,,---,0.00,VWS V14.01,2013-02-21 09:40:00,
2013-02-21 03:45:00,76.5,51.0,26.96,SE,144,5.4,20.6,32,0.00,,---,0.00,VWS V14.01,2013-02-21 09:45:00,
2013-02-21 03:50:00,76.5,51.0,26.96,SE,138,4.5,8.1,32,0.00,,---,0.00,VWS V14.01,2013-02-21 09:50:00,
2013-02-21 03:55:00,76.5,51.0,26.99,ESE,102,6.3,11.4,32,0.00,,---,0.00,VWS V14.01,2013-02-21 09:55:00,
2013-02-21 04:00:00,76.5,51.0,26.99,SE,126,7.6,8.7,32,0.00,,---,0.00,VWS V14.01,2013-02-21 10:00:00,
2013-02-21 04:04:00,76.5,51.0,26.99,East,97,15.0,15.0,32,0.00,,---,0.00,VWS V14.01,2013-02-21 10:04:00,
2013-02-21 04:09:00,76.5,51.0,26.99,SSE,157,5.4,5.4,32,0.00,,---,0.00,VWS V14.01,2013-02-21 10:09:00,
2013-02-21 04:14:00,76.5,51.0,26.99,East,84,13.6,13.6,32,0.00,,---,0.00,VWS V14.01,2013-02-21 10:14:00,
2013-02-21 04:19:00,76.5,51.0,26.99,East,87,5.4,12.8,32,0.00,,---,0.00,VWS V14.01,2013-02-21 10:19:00,
2013-02-21 04:24:00,76.5,51.0,26.99,SE,144,5.4,7.6,32,0.00,,---,0.00,VWS V14.01,2013-02-21 10:24:00,
2013-02-21 04:29:00,76.5,51.0,26.99,ESE,110,12.3,12.3,32,0.00,,---,0.00,VWS V14.01,2013-02-21 10:29:00,
2013-02-21 04:34:00,76.5,51.0,26.99,SE,130,5.8,10.1,32,0.00,,---,0.00,VWS V14.01,2013-02-21 10:34:00,
2013-02-21 04:39:00,76.5,51.0,26.99,ESE,122,8.1,8.1,32,0.00,,---,0.00,VWS V14.01,2013-02-21 10:39:00,
2013-02-21 04:44:00,76.5,51.0,26.99,ESE,103,10.1,11.0,32,0.00,,---,0.00,VWS V14.01,2013-02-21 10:44:00,
2013-02-21 04:49:00,76.5,51.0,26.99,SE,131,8.7,9.6,32,0.00,,---,0.00,VWS V14.01,2013-02-21 10:49:00,
2013-02-21 04:54:00,76.5,51.0,27.02,SE,124,5.4,8.3,32,0.00,,---,0.00,VWS V14.01,2013-02-21 10:54:00,
2013-02-21 04:59:00,76.5,51.0,27.02,ESE,115,4.0,6.3,32,0.00,,---,0.00,VWS V14.01,2013-02-21 10:59:00,
2013-02-21 05:04:00,76.5,51.0,27.02,SE,131,8.1,8.3,32,0.00,,---,0.00,VWS V14.01,2013-02-21 11:04:00,
2013-02-21 05:09:00,76.5,51.0,27.02,SE,139,6.3,8.7,32,0.00,,---,0.00,VWS V14.01,2013-02-21 11:09:00,
2013-02-21 05:14:00,76.5,51.0,27.02,East,82,8.1,8.1,32,0.00,,---,0.00,VWS V14.01,2013-02-21 11:14:00,
2013-02-21 05:19:00,76.5,51.0,27.02,ENE,76,9.6,10.1,32,0.00,,---,0.00,VWS V14.01,2013-02-21 11:19:00,
2013-02-21 05:24:00,76.5,51.0,27.02,ESE,123,7.6,12.8,32,0.00,,---,0.00,VWS V14.01,2013-02-21 11:24:00,
2013-02-21 05:29:00,76.5,51.0,27.02,SE,144,6.3,6.3,32,0.00,,---,0.00,VWS V14.01,2013-02-21 11:29:00,
2013-02-21 05:34:00,76.5,51.0,27.02,ESE,121,21.9,21.9,32,0.00,,---,0.00,VWS V14.01,2013-02-21 11:34:00,
2013-02-21 05:39:00,76.5,51.0,27.02,East,92,8.1,10.1,32,0.00,,---,0.00,VWS V14.01,2013-02-21 11:39:00,
2013-02-21 05:44:00,76.5,51.0,27.02,SE,126,5.4,5.4,32,0.00,,---,0.00,VWS V14.01,2013-02-21 11:44:00,
2013-02-21 05:49:00,76.5,51.0,27.02,SE,133,6.3,8.1,32,0.00,,---,0.00,VWS V14.01,2013-02-21 11:49:00,
2013-02-21 05:54:00,76.5,51.0,27.02,SE,131,6.3,8.7,32,0.00,,---,0.00,VWS V14.01,2013-02-21 11:54:00,
2013-02-21 05:59:00,76.5,51.0,27.02,South,170,5.8,5.8,32,0.00,,---,0.00,VWS V14.01,2013-02-21 11:59:00,
2013-02-21 06:04:00,76.5,51.0,27.02,SE,143,5.4,8.1,32,0.00,,---,0.00,VWS V14.01,2013-02-21 12:04:00,
2013-02-21 06:09:00,76.5,51.0,27.02,SE,129,8.3,10.5,32,0.00,,---,0.00,VWS V14.01,2013-02-21 12:09:00,
2013-02-21 06:14:00,76.5,51.0,27.02,East,89,6.3,7.6,32,0.00,,---,0.00,VWS V14.01,2013-02-21 12:14:00,
2013-02-21 06:19:00,76.5,51.0,27.02,SE,133,12.8,12.8,32,0.00,,---,0.00,VWS V14.01,2013-02-21 12:19:00,
2013-02-21 06:24:00,76.5,51.0,27.05,ESE,108,6.3,8.3,32,0.00,,---,0.00,VWS V14.01,2013-02-21 12:24:00,
2013-02-21 06:29:00,76.5,51.0,27.05,SE,133,10.5,10.5,32,0.00,,---,0.00,VWS V14.01,2013-02-21 12:29:00,
2013-02-21 06:34:00,76.5,51.0,27.05,SSE,155,5.8,8.1,32,0.00,,---,0.00,VWS V14.01,2013-02-21 12:34:00,
2013-02-21 06:39:00,76.5,51.0,27.02,SE,128,8.7,12.3,32,0.00,,---,0.00,VWS V14.01,2013-02-21 12:39:00,
2013-02-21 06:44:00,76.5,51.0,27.02,ESE,121,5.8,11.0,32,0.00,,---,0.00,VWS V14.01,2013-02-21 12:44:00,
2013-02-21 06:49:00,76.5,51.0,27.02,ESE,103,4.0,6.3,32,0.00,,---,0.00,VWS V14.01,2013-02-21 12:49:00,
2013-02-21 06:54:00,76.5,51.0,27.05,ESE,115,4.9,4.9,32,0.00,,---,0.00,VWS V14.01,2013-02-21 12:54:00,
2013-02-21 06:59:00,76.5,51.0,27.05,SE,145,8.3,8.3,32,0.00,,---,0.00,VWS V14.01,2013-02-21 12:59:00,
2013-02-21 07:04:00,76.5,51.0,27.05,East,99,8.1,8.1,32,0.00,,---,0.00,VWS V14.01,2013-02-21 13:04:00,
2013-02-21 07:09:00,76.5,51.0,27.05,East,91,6.3,10.5,32,0.00,,---,0.00,VWS V14.01,2013-02-21 13:09:00,
2013-02-21 07:14:00,76.5,51.0,27.05,SSE,150,5.8,6.3,32,0.00,,---,0.00,VWS V14.01,2013-02-21 13:14:00,
2013-02-21 07:19:00,76.5,51.0,27.05,SE,128,10.1,10.1,32,0.00,,---,0.00,VWS V14.01,2013-02-21 13:19:00,
2013-02-21 07:24:00,76.5,51.0,27.05,SE,126,5.8,8.1,32,0.00,,---,0.00,VWS V14.01,2013-02-21 13:24:00,
2013-02-21 07:29:00,76.5,51.0,27.05,SE,124,9.2,9.2,32,0.00,,---,0.00,VWS V14.01,2013-02-21 13:29:00,
2013-02-21 07:34:00,76.5,51.0,27.05,East,84,10.5,10.5,32,0.00,,---,0.00,VWS V14.01,2013-02-21 13:34:00,
2013-02-21 07:39:00,76.5,51.0,27.05,East,95,5.4,7.6,32,0.00,,---,0.00,VWS V14.01,2013-02-21 13:39:00,
2013-02-21 07:44:00,76.5,51.0,27.05,SE,134,4.9,10.5,32,0.00,,---,0.00,VWS V14.01,2013-02-21 13:44:00,
2013-02-21 07:49:00,76.5,51.0,27.05,South,179,8.7,8.7,32,0.00,,---,0.00,VWS V14.01,2013-02-21 13:49:00,
2013-02-21 07:54:00,76.5,51.0,27.05,East,93,8.1,8.1,32,0.00,,---,0.00,VWS V14.01,2013-02-21 13:54:00,
2013-02-21 07:59:00,76.5,51.0,27.05,ESE,108,8.7,8.7,32,0.00,,---,0.00,VWS V14.01,2013-02-21 13:59:00,
2013-02-21 08:04:00,76.5,51.0,27.05,East,82,8.3,9.6,32,0.00,,---,0.00,VWS V14.01,2013-02-21 14:04:00,
2013-02-21 08:09:00,76.5,51.0,27.05,SE,133,13.6,13.6,32,0.00,,---,0.00,VWS V14.01,2013-02-21 14:09:00,
2013-02-21 08:14:00,76.5,51.0,27.05,ESE,119,5.4,11.0,32,0.00,,---,0.00,VWS V14.01,2013-02-21 14:14:00,
2013-02-21 08:19:00,76.5,51.0,27.05,East,86,11.0,12.3,32,0.00,,---,0.00,VWS V14.01,2013-02-21 14:19:00,
2013-02-21 08:24:00,76.5,51.0,27.08,ENE,78,10.1,10.1,32,0.00,,---,0.00,VWS V14.01,2013-02-21 14:24:00,
2013-02-21 08:29:00,76.5,51.0,27.08,East,92,10.5,10.5,32,0.00,,---,0.00,VWS V14.01,2013-02-21 14:29:00,
2013-02-21 08:34:00,76.5,51.0,27.08,SE,125,12.3,12.3,32,0.00,,---,0.00,VWS V14.01,2013-02-21 14:34:00,
2013-02-21 08:39:00,76.5,51.0,27.08,ESE,108,10.5,10.5,32,0.00,,---,0.00,VWS V14.01,2013-02-21 14:39:00,
2013-02-21 08:44:00,76.5,51.0,27.08,ENE,74,8.3,13.2,32,0.00,,---,0.00,VWS V14.01,2013-02-21 14:44:00,
2013-02-21 08:49:00,76.5,51.0,27.08,SSW,192,8.7,8.7,32,0.00,,---,0.00,VWS V14.01,2013-02-21 14:49:00,
2013-02-21 08:54:00,76.5,51.0,27.08,ENE,72,9.6,14.1,32,0.00,,---,0.00,VWS V14.01,2013-02-21 14:54:00,
2013-02-21 08:59:00,76.5,51.0,27.08,East,81,10.1,13.6,32,0.00,,---,0.00,VWS V14.01,2013-02-21 14:59:00,
2013-02-21 09:04:00,76.5,51.0,27.08,East,84,6.3,16.8,32,0.00,,---,0.00,VWS V14.01,2013-02-21 15:04:00,
2013-02-21 09:09:00,76.5,51.0,27.08,ESE,104,10.5,10.5,32,0.00,,---,0.00,VWS V14.01,2013-02-21 15:09:00,
2013-02-21 09:14:00,76.5,51.0,27.08,East,85,17.0,17.0,32,0.00,,---,0.00,VWS V14.01,2013-02-21 15:14:00,
2013-02-21 09:19:00,76.5,51.0,27.08,NE,43,10.1,13.6,32,0.00,,---,0.00,VWS V14.01,2013-02-21 15:19:00,
2013-02-21 09:24:00,76.5,51.0,27.08,SE,131,7.6,10.1,32,0.00,,---,0.00,VWS V14.01,2013-02-21 15:24:00,
2013-02-21 09:29:00,76.5,51.0,27.08,ESE,112,15.4,15.4,32,0.00,,---,0.00,VWS V14.01,2013-02-21 15:29:00,
2013-02-21 09:34:00,76.5,51.0,27.08,SSE,153,7.6,10.5,32,0.00,,---,0.00,VWS V14.01,2013-02-21 15:34:00,
2013-02-21 09:39:00,76.5,51.0,27.08,ENE,69,10.1,15.0,32,0.00,,---,0.00,VWS V14.01,2013-02-21 15:39:00,
2013-02-21 09:44:00,76.5,51.0,27.08,NE,34,14.1,14.1,32,0.00,,---,0.00,VWS V14.01,2013-02-21 15:44:00,
2013-02-21 09:49:00,76.5,51.0,27.08,SSE,147,4.0,4.0,32,0.00,,---,0.00,VWS V14.01,2013-02-21 15:49:00,
2013-02-21 09:54:00,76.5,51.0,27.08,ENE,76,11.9,11.9,32,0.00,,---,0.00,VWS V14.01,2013-02-21 15:54:00,
2013-02-21 09:59:00,76.5,51.0,27.08,SE,125,7.2,8.1,32,0.00,,---,0.00,VWS V14.01,2013-02-21 15:59:00,
2013-02-21 10:04:00,76.5,51.0,27.08,ENE,67,9.2,10.1,32,0.00,,---,0.00,VWS V14.01,2013-02-21 16:04:00,
2013-02-21 10:09:00,76.5,51.0,27.08,WSW,257,11.0,11.0,32,0.04,,---,0.04,VWS V14.01,2013-02-21 16:09:00,
2013-02-21 10:14:00,76.5,51.0,27.08,SE,139,5.4,8.7,32,0.04,,---,0.04,VWS V14.01,2013-02-21 16:14:00,
2013-02-21 10:19:00,76.5,51.0,27.08,SSE,165,11.0,11.0,32,0.04,,---,0.04,VWS V14.01,2013-02-21 16:19:00,
2013-02-21 10:24:00,76.5,51.0,27.08,ESE,118,4.0,4.0,32,0.04,,---,0.04,VWS V14.01,2013-02-21 16:24:00,
2013-02-21 10:29:00,76.5,51.0,27.08,SE,142,8.3,13.2,32,0.04,,---,0.04,VWS V14.01,2013-02-21 16:29:00,
2013-02-21 10:34:00,76.5,51.0,27.08,ESE,111,7.6,11.0,32,0.04,,---,0.04,VWS V14.01,2013-02-21 16:34:00,
2013-02-21 10:39:00,76.5,51.0,27.08,ESE,112,8.3,8.3,32,0.04,,---,0.04,VWS V14.01,2013-02-21 16:39:00,
2013-02-21 10:44:00,76.5,51.0,27.08,ESE,104,8.7,15.4,32,0.04,,---,0.04,VWS V14.01,2013-02-21 16:44:00,
2013-02-21 10:49:00,76.5,51.0,27.08,East,86,8.3,8.3,32,0.04,,---,0.04,VWS V14.01,2013-02-21 16:49:00,
2013-02-21 10:54:00,76.5,51.0,27.08,East,88,9.2,12.8,32,0.04,,---,0.04,VWS V14.01,2013-02-21 16:54:00,
2013-02-21 10:59:00,76.5,51.0,27.08,ESE,112,7.6,9.6,32,0.04,,---,0.04,VWS V14.01,2013-02-21 16:59:00,
2013-02-21 11:04:00,76.5,51.0,27.08,ESE,102,7.2,7.2,32,0.04,,---,0.04,VWS V14.01,2013-02-21 17:04:00,
2013-02-21 11:09:00,76.5,51.0,27.08,ESE,116,8.7,8.7,32,0.00,,---,0.04,VWS V14.01,2013-02-21 17:09:00,
2013-02-21 11:14:00,76.5,51.0,27.08,ESE,117,8.1,10.1,32,0.00,,---,0.04,VWS V14.01,2013-02-21 17:14:00,
2013-02-21 11:19:00,76.5,51.0,27.08,ESE,110,9.6,9.6,32,0.00,,---,0.04,VWS V14.01,2013-02-21 17:19:00,
2013-02-21 11:24:00,76.5,51.0,27.08,SSE,150,5.8,5.8,32,0.00,,---,0.04,VWS V14.01,2013-02-21 17:24:00,
2013-02-21 11:29:00,76.5,51.0,27.08,SE,140,8.7,10.5,32,0.00,,---,0.04,VWS V14.01,2013-02-21 17:29:00,
2013-02-21 11:34:00,76.5,51.0,27.08,SE,130,7.6,9.6,32,0.00,,---,0.04,VWS V14.01,2013-02-21 17:34:00,
2013-02-21 11:39:00,76.5,51.0,27.05,ESE,108,7.6,8.3,32,0.00,,---,0.04,VWS V14.01,2013-02-21 17:39:00,
2013-02-21 11:44:00,76.5,51.0,27.05,SSW,204,3.6,8.1,32,0.00,,---,0.04,VWS V14.01,2013-02-21 17:44:00,
2013-02-21 11:49:00,76.5,51.0,27.05,East,91,8.3,10.5,32,0.00,,---,0.04,VWS V14.01,2013-02-21 17:49:00,
2013-02-21 11:54:00,76.5,51.0,27.05,SSE,159,2.7,2.7,32,0.00,,---,0.04,VWS V14.01,2013-02-21 17:54:00,
2013-02-21 11:59:00,76.5,51.0,27.05,ESE,120,6.3,7.6,32,0.00,,---,0.04,VWS V14.01,2013-02-21 17:59:00,
2013-02-21 12:04:00,76.5,51.0,27.05,SE,143,8.1,8.1,32,0.00,,---,0.04,VWS V14.01,2013-02-21 18:04:00,
2013-02-21 12:09:00,76.5,51.0,27.05,SE,143,6.3,8.1,32,0.00,,---,0.04,VWS V14.01,2013-02-21 18:09:00,
2013-02-21 12:14:00,76.5,51.0,27.05,East,99,15.4,15.4,32,0.00,,---,0.04,VWS V14.01,2013-02-21 18:14:00,
2013-02-21 12:19:00,76.5,51.0,27.05,ESE,112,5.8,5.8,32,0.00,,---,0.04,VWS V14.01,2013-02-21 18:19:00,
2013-02-21 12:24:00,76.5,51.0,27.05,ENE,69,15.4,15.4,32,0.00,,---,0.04,VWS V14.01,2013-02-21 18:24:00,
2013-02-21 12:29:00,76.5,51.0,27.05,ENE,78,8.3,8.7,32,0.00,,---,0.04,VWS V14.01,2013-02-21 18:29:00,
2013-02-21 12:34:00,76.5,51.0,27.05,SSE,148,7.6,7.6,32,0.00,,---,0.04,VWS V14.01,2013-02-21 18:34:00,
2013-02-21 12:39:00,76.5,51.0,27.05,SE,126,7.6,7.6,32,0.00,,---,0.04,VWS V14.01,2013-02-21 18:39:00,
2013-02-21 12:44:00,76.5,51.0,27.05,East,101,3.6,6.3,32,0.00,,---,0.04,VWS V14.01,2013-02-21 18:44:00,
2013-02-21 12:49:00,76.5,51.0,27.05,ESE,121,8.3,8.7,32,0.00,,---,0.04,VWS V14.01,2013-02-21 18:49:00,
2013-02-21 12:54:00,76.5,51.0,27.05,SE,146,5.4,6.3,32,0.00,,---,0.04,VWS V14.01,2013-02-21 18:54:00,
2013-02-21 12:59:00,76.5,51.0,27.05,ENE,69,18.3,18.3,32,0.00,,---,0.04,VWS V14.01,2013-02-21 18:59:00,
2013-02-21 13:04:00,76.5,51.0,27.05,ENE,61,7.6,7.6,32,0.00,,---,0.04,VWS V14.01,2013-02-21 19:04:00,
2013-02-21 13:09:00,76.5,51.0,27.02,ESE,106,8.1,8.7,32,0.00,,---,0.04,VWS V14.01,2013-02-21 19:09:00,
2013-02-21 13:14:00,76.5,51.0,27.02,ENE,78,15.9,15.9,32,0.00,,---,0.04,VWS V14.01,2013-02-21 19:14:00,
2013-02-21 13:19:00,76.5,51.0,27.02,ESE,105,4.9,4.9,32,0.00,,---,0.04,VWS V14.01,2013-02-21 19:19:00,
2013-02-21 13:24:00,76.5,51.0,27.02,ESE,119,10.5,10.5,32,0.00,,---,0.04,VWS V14.01,2013-02-21 19:24:00,
2013-02-21 13:29:00,76.5,51.0,27.02,ESE,121,5.4,7.6,32,0.00,,---,0.04,VWS V14.01,2013-02-21 19:29:00,
2013-02-21 13:34:00,76.5,51.0,27.02,South,173,8.3,18.3,32,0.00,,---,0.04,VWS V14.01,2013-02-21 19:34:00,
2013-02-21 13:39:00,76.5,51.0,27.02,ENE,75,8.7,8.7,32,0.00,,---,0.04,VWS V14.01,2013-02-21 19:39:00,
2013-02-21 13:44:00,76.5,51.0,27.02,ESE,111,10.5,11.0,32,0.00,,---,0.04,VWS V14.01,2013-02-21 19:44:00,
2013-02-21 13:49:00,76.5,51.0,27.02,SE,127,5.8,8.1,32,0.00,,---,0.04,VWS V14.01,2013-02-21 19:49:00,
2013-02-21 13:54:00,76.5,51.0,27.02,ESE,102,8.7,11.0,32,0.00,,---,0.04,VWS V14.01,2013-02-21 19:54:00,
2013-02-21 13:59:00,76.5,51.0,27.02,SE,138,10.5,10.5,32,0.00,,---,0.04,VWS V14.01,2013-02-21 19:59:00,
2013-02-21 14:04:00,76.5,51.0,27.02,ESE,106,5.4,5.8,32,0.00,,---,0.04,VWS V14.01,2013-02-21 20:04:00,
2013-02-21 14:09:00,76.5,51.0,26.99,East,87,5.4,5.4,32,0.00,,---,0.04,VWS V14.01,2013-02-21 20:09:00,
2013-02-21 14:14:00,76.5,51.0,26.99,ESE,117,5.4,8.1,32,0.00,,---,0.04,VWS V14.01,2013-02-21 20:14:00,
2013-02-21 14:19:00,76.5,51.0,26.99,ESE,108,5.4,8.7,32,0.00,,---,0.04,VWS V14.01,2013-02-21 20:19:00,
2013-02-21 14:24:00,76.5,51.0,27.02,East,79,12.8,12.8,32,0.00,,---,0.04,VWS V14.01,2013-02-21 20:24:00,
2013-02-21 14:29:00,76.5,51.0,27.02,SSE,152,8.3,8.3,32,0.00,,---,0.04,VWS V14.01,2013-02-21 20:29:00,
2013-02-21 14:34:00,76.5,51.0,27.02,East,93,8.7,8.7,32,0.00,,---,0.04,VWS V14.01,2013-02-21 20:34:00,
2013-02-21 14:39:00,76.5,51.0,27.02,East,99,11.9,12.8,32,0.00,,---,0.04,VWS V14.01,2013-02-21 20:39:00,
2013-02-21 14:44:00,76.5,51.0,27.02,SE,130,7.6,7.6,32,0.00,,---,0.04,VWS V14.01,2013-02-21 20:44:00,
2013-02-21 14:49:00,76.5,51.0,27.02,East,84,10.5,10.5,32,0.00,,---,0.04,VWS V14.01,2013-02-21 20:49:00,
2013-02-21 14:54:00,76.5,51.0,26.99,ESE,112,9.2,9.2,32,0.00,,---,0.04,VWS V14.01,2013-02-21 20:54:00,
2013-02-21 14:59:00,76.5,51.0,26.99,East,99,5.8,5.8,32,0.00,,---,0.04,VWS V14.01,2013-02-21 20:59:00,
2013-02-21 15:04:00,76.5,51.0,26.99,SE,130,5.4,5.4,32,0.00,,---,0.04,VWS V14.01,2013-02-21 21:04:00,
2013-02-21 15:09:00,76.5,51.0,26.99,ESE,113,5.4,8.1,32,0.00,,---,0.04,VWS V14.01,2013-02-21 21:09:00,
2013-02-21 15:14:00,76.5,51.0,26.99,ESE,105,7.6,16.3,32,0.00,,---,0.04,VWS V14.01,2013-02-21 21:14:00,
2013-02-21 15:19:00,76.5,51.0,26.99,SE,137,8.1,12.3,32,0.00,,---,0.04,VWS V14.01,2013-02-21 21:19:00,
2013-02-21 15:24:00,76.5,51.0,26.99,East,84,7.2,7.2,32,0.00,,---,0.04,VWS V14.01,2013-02-21 21:24:00,
2013-02-21 15:29:00,76.5,51.0,26.99,East,82,12.3,12.3,32,0.00,,---,0.04,VWS V14.01,2013-02-21 21:29:00,
2013-02-21 15:34:00,76.5,51.0,26.99,SSE,162,8.1,14.5,32,0.00,,---,0.04,VWS V14.01,2013-02-21 21:34:00,
2013-02-21 15:39:00,76.5,51.0,26.99,ESE,102,5.8,8.3,32,0.00,,---,0.04,VWS V14.01,2013-02-21 21:39:00,
2013-02-21 15:44:00,76.5,51.0,26.99,ESE,110,13.6,13.6,32,0.00,,---,0.04,VWS V14.01,2013-02-21 21:44:00,
2013-02-21 15:49:00,76.5,51.0,26.99,SSW,197,8.1,8.1,32,0.00,,---,0.04,VWS V14.01,2013-02-21 21:49:00,
2013-02-21 15:54:00,76.5,51.0,26.99,SSE,162,10.5,10.5,32,0.00,,---,0.04,VWS V14.01,2013-02-21 21:54:00,
2013-02-21 15:59:00,76.5,51.0,26.99,SE,125,8.3,12.8,32,0.00,,---,0.04,VWS V14.01,2013-02-21 21:59:00,
2013-02-21 16:04:00,76.5,51.0,26.99,NE,50,11.0,11.0,32,0.00,,---,0.04,VWS V14.01,2013-02-21 22:04:00,
2013-02-21 16:09:00,76.5,51.0,26.99,SSE,157,8.1,10.5,32,0.00,,---,0.04,VWS V14.01,2013-02-21 22:09:00,
2013-02-21 16:14:00,76.5,51.0,26.99,East,92,7.6,7.6,32,0.00,,---,0.04,VWS V14.01,2013-02-21 22:14:00,
2013-02-21 16:19:00,76.5,51.0,26.99,ESE,109,6.3,10.5,32,0.00,,---,0.04,VWS V14.01,2013-02-21 22:19:00,
2013-02-21 16:24:00,76.5,51.0,27.02,East,93,5.8,15.4,32,0.00,,---,0.04,VWS V14.01,2013-02-21 22:24:00,
2013-02-21 16:29:00,76.5,51.0,27.02,SE,135,3.1,4.9,32,0.00,,---,0.04,VWS V14.01,2013-02-21 22:29:00,
2013-02-21 16:34:00,76.5,51.0,27.02,SE,129,5.4,5.4,32,0.00,,---,0.04,VWS V14.01,2013-02-21 22:34:00,
2013-02-21 16:39:00,76.5,51.0,27.02,SE,136,5.4,5.4,32,0.00,,---,0.04,VWS V14.01,2013-02-21 22:39:00,
2013-02-21 16:44:00,76.5,51.0,27.02,SE,131,6.3,6.3,32,0.00,,---,0.04,VWS V14.01,2013-02-21 22:44:00,
2013-02-21 16:49:00,76.5,51.0,27.02,SSE,156,7.6,8.3,32,0.00,,---,0.04,VWS V14.01,2013-02-21 22:49:00,
2013-02-21 16:54:00,76.5,51.0,27.02,SE,143,5.4,5.4,32,0.00,,---,0.04,VWS V14.01,2013-02-21 22:54:00,
2013-02-21 16:59:00,76.5,51.0,27.02,SSE,160,5.4,11.0,32,0.00,,---,0.04,VWS V14.01,2013-02-21 22:59:00,
2013-02-21 17:04:00,76.5,51.0,27.02,SE,132,6.3,6.3,32,0.00,,---,0.04,VWS V14.01,2013-02-21 23:04:00,
2013-02-21 17:09:00,76.5,51.0,27.02,South,179,8.3,8.3,32,0.00,,---,0.04,VWS V14.01,2013-02-21 23:09:00,
2013-02-21 17:14:00,76.5,51.0,27.02,ESE,111,5.8,8.3,32,0.00,,---,0.04,VWS V14.01,2013-02-21 23:14:00,
2013-02-21 17:19:00,76.5,51.0,27.02,ESE,120,8.3,8.7,32,0.00,,---,0.04,VWS V14.01,2013-02-21 23:19:00,
2013-02-21 17:24:00,76.5,51.0,27.02,ESE,116,12.3,12.3,32,0.00,,---,0.04,VWS V14.01,2013-02-21 23:24:00,
2013-02-21 17:29:00,76.5,51.0,27.02,ESE,117,8.3,8.7,32,0.00,,---,0.04,VWS V14.01,2013-02-21 23:29:00,
2013-02-21 17:34:00,76.5,51.0,27.02,ESE,112,11.9,11.9,32,0.00,,---,0.04,VWS V14.01,2013-02-21 23:34:00,
2013-02-21 17:39:00,76.5,51.0,27.02,ESE,115,5.4,5.4,32,0.00,,---,0.04,VWS V14.01,2013-02-21 23:39:00,
2013-02-21 17:44:00,76.5,51.0,27.02,East,87,6.7,6.7,32,0.00,,---,0.04,VWS V14.01,2013-02-21 23:44:00,
2013-02-21 17:49:00,76.5,51.0,27.02,ESE,111,10.5,13.2,32,0.00,,---,0.04,VWS V14.01,2013-02-21 23:49:00,
2013-02-21 17:54:00,76.5,51.0,27.02,SSE,153,4.9,5.8,32,0.00,,---,0.04,VWS V14.01,2013-02-21 23:54:00,
2013-02-21 17:59:00,76.5,51.0,27.02,East,90,5.4,8.3,32,0.00,,---,0.04,VWS V14.01,2013-02-21 23:59:00,
2013-02-21 18:04:00,76.5,51.0,27.02,ESE,117,9.6,9.6,32,0.00,,---,0.04,VWS V14.01,2013-02-22 00:04:00,
2013-02-21 18:09:00,76.5,51.0,27.02,ESE,104,11.0,11.0,32,0.00,,---,0.04,VWS V14.01,2013-02-22 00:09:00,
2013-02-21 18:14:00,76.5,51.0,27.02,East,86,9.2,9.2,32,0.00,,---,0.04,VWS V14.01,2013-02-22 00:14:00,
2013-02-21 18:19:00,76.5,51.0,27.02,ESE,105,12.3,12.3,32,0.00,,---,0.04,VWS V14.01,2013-02-22 00:19:00,
2013-02-21 18:24:00,76.5,51.0,27.05,SSE,147,13.2,13.2,32,0.00,,---,0.04,VWS V14.01,2013-02-22 00:24:00,
2013-02-21 18:29:00,76.5,51.0,27.05,ESE,103,6.3,8.7,32,0.00,,---,0.04,VWS V14.01,2013-02-22 00:29:00,
2013-02-21 18:34:00,76.5,51.0,27.05,ESE,106,8.3,8.3,32,0.00,,---,0.04,VWS V14.01,2013-02-22 00:34:00,
2013-02-21 18:39:00,76.5,51.0,27.05,ESE,115,4.5,8.3,32,0.00,,---,0.04,VWS V14.01,2013-02-22 00:39:00,
2013-02-21 18:44:00,76.5,51.0,27.05,SE,141,5.4,8.3,32,0.00,,---,0.04,VWS V14.01,2013-02-22 00:44:00,
2013-02-21 18:49:00,76.5,51.0,27.05,SSE,147,2.7,5.4,32,0.00,,---,0.04,VWS V14.01,2013-02-22 00:49:00,
2013-02-21 18:54:00,76.5,51.0,27.05,SE,126,7.6,7.6,32,0.00,,---,0.04,VWS V14.01,2013-02-22 00:54:00,
2013-02-21 18:59:00,76.5,51.0,27.05,East,92,6.3,8.3,32,0.00,,---,0.04,VWS V14.01,2013-02-22 00:59:00,
2013-02-21 19:04:00,76.5,51.0,27.05,ESE,114,5.8,5.8,32,0.00,,---,0.04,VWS V14.01,2013-02-22 01:04:00,
2013-02-21 19:09:00,76.5,51.0,27.05,SE,139,4.0,4.0,32,0.00,,---,0.04,VWS V14.01,2013-02-22 01:09:00,
2013-02-21 19:14:00,76.5,51.0,27.05,SE,124,4.0,4.9,32,0.00,,---,0.04,VWS V14.01,2013-02-22 01:14:00,
2013-02-21 19:19:00,76.5,51.0,27.05,ESE,119,3.1,8.7,32,0.00,,---,0.04,VWS V14.01,2013-02-22 01:19:00,
2013-02-21 19:24:00,76.5,51.0,27.05,ENE,74,5.8,7.6,32,0.00,,---,0.04,VWS V14.01,2013-02-22 01:24:00,
2013-02-21 19:29:00,76.5,51.0,27.05,ESE,102,8.1,8.1,32,0.00,,---,0.04,VWS V14.01,2013-02-22 01:29:00,
2013-02-21 19:34:00,76.5,51.0,27.05,SE,132,5.8,5.8,32,0.00,,---,0.04,VWS V14.01,2013-02-22 01:34:00,
2013-02-21 19:39:00,76.5,51.0,27.08,SSE,147,3.6,4.9,32,0.00,,---,0.04,VWS V14.01,2013-02-22 01:39:00,
2013-02-21 19:44:00,76.5,51.0,27.08,SE,137,5.8,5.8,32,0.00,,---,0.04,VWS V14.01,2013-02-22 01:44:00,
2013-02-21 19:49:00,76.5,51.0,27.08,South,187,8.1,8.1,32,0.00,,---,0.04,VWS V14.01,2013-02-22 01:49:00,
2013-02-21 19:54:00,76.5,51.0,27.08,SSE,155,6.3,6.3,32,0.00,,---,0.04,VWS V14.01,2013-02-22 01:54:00,
2013-02-21 19:59:00,76.5,51.0,27.08,SE,129,11.0,12.8,32,0.00,,---,0.04,VWS V14.01,2013-02-22 01:59:00,
2013-02-21 20:04:00,76.5,51.0,27.08,ENE,74,8.3,8.3,32,0.00,,---,0.04,VWS V14.01,2013-02-22 02:04:00,
2013-02-21 20:09:00,76.5,51.0,27.08,ESE,118,8.1,8.1,32,0.00,,---,0.04,VWS V14.01,2013-02-22 02:09:00,
2013-02-21 20:14:00,76.5,51.0,27.08,SE,137,7.6,7.6,32,0.00,,---,0.04,VWS V14.01,2013-02-22 02:14:00,
2013-02-21 20:19:00,76.5,51.0,27.08,SE,138,5.8,8.1,32,0.00,,---,0.04,VWS V14.01,2013-02-22 02:19:00,
2013-02-21 20:24:00,76.5,51.0,27.08,SE,132,7.2,8.1,32,0.00,,---,0.04,VWS V14.01,2013-02-22 02:24:00,
2013-02-21 20:29:00,76.5,51.0,27.08,ESE,102,6.3,14.5,32,0.00,,---,0.04,VWS V14.01,2013-02-22 02:29:00,
2013-02-21 20:34:00,76.5,51.0,27.08,ESE,107,11.0,11.0,32,0.00,,---,0.04,VWS V14.01,2013-02-22 02:34:00,
2013-02-21 20:39:00,76.5,51.0,27.08,SE,125,5.4,5.4,32,0.00,,---,0.04,VWS V14.01,2013-02-22 02:39:00,
2013-02-21 20:44:00,76.5,51.0,27.08,SE,142,5.8,11.0,32,0.00,,---,0.04,VWS V14.01,2013-02-22 02:44:00,
2013-02-21 20:49:00,76.5,51.0,27.08,ESE,110,7.2,7.2,32,0.00,,---,0.04,VWS V14.01,2013-02-22 02:49:00,
2013-02-21 20:54:00,76.5,51.0,27.08,SSE,160,4.0,12.3,32,0.00,,---,0.04,VWS V14.01,2013-02-22 02:54:00,
2013-02-21 20:59:00,76.5,51.0,27.08,SE,129,6.3,10.1,32,0.00,,---,0.04,VWS V14.01,2013-02-22 02:59:00,
2013-02-21 21:04:00,76.5,51.0,27.08,East,100,9.6,9.6,32,0.00,,---,0.04,VWS V14.01,2013-02-22 03:04:00,
2013-02-21 21:09:00,76.5,51.0,27.08,SE,126,7.6,7.6,32,0.00,,---,0.04,VWS V14.01,2013-02-22 03:09:00,
2013-02-21 21:14:00,76.5,51.0,27.08,SE,127,6.7,8.7,32,0.00,,---,0.04,VWS V14.01,2013-02-22 03:14:00,
2013-02-21 21:19:00,76.5,51.0,27.08,East,91,8.1,8.3,32,0.00,,---,0.04,VWS V14.01,2013-02-22 03:19:00,
2013-02-21 21:24:00,76.5,51.0,27.08,ESE,121,6.7,6.7,32,0.00,,---,0.04,VWS V14.01,2013-02-22 03:24:00,
2013-02-21 21:29:00,76.5,51.0,27.08,SE,136,10.1,10.5,32,0.00,,---,0.04,VWS V14.01,2013-02-22 03:29:00,
2013-02-21 21:34:00,76.5,51.0,27.08,ESE,117,4.0,7.6,32,0.00,,---,0.04,VWS V14.01,2013-02-22 03:34:00,
2013-02-21 21:39:00,76.5,51.0,27.05,SSE,161,8.3,8.7,32,0.00,,---,0.04,VWS V14.01,2013-02-22 03:39:00,
2013-02-21 21:44:00,76.5,51.0,27.05,ESE,115,5.8,11.9,32,0.00,,---,0.04,VWS V14.01,2013-02-22 03:44:00,
2013-02-21 21:49:00,76.5,51.0,27.05,SE,139,5.8,15.4,32,0.00,,---,0.04,VWS V14.01,2013-02-22 03:49:00,
2013-02-21 21:54:00,76.5,51.0,27.08,SE,126,6.3,6.3,32,0.00,,---,0.04,VWS V14.01,2013-02-22 03:54:00,
2013-02-21 21:59:00,76.5,51.0,27.08,East,101,8.1,8.1,32,0.00,,---,0.04,VWS V14.01,2013-02-22 03:59:00,
2013-02-21 22:04:00,76.5,51.0,27.08,ESE,122,5.4,8.3,32,0.00,,---,0.04,VWS V14.01,2013-02-22 04:04:00,
2013-02-21 22:09:00,76.5,51.0,27.08,ESE,112,5.8,7.2,32,0.00,,---,0.04,VWS V14.01,2013-02-22 04:09:00,
2013-02-21 22:14:00,76.5,51.0,27.08,SE,129,4.9,4.9,32,0.00,,---,0.04,VWS V14.01,2013-02-22 04:14:00,
2013-02-21 22:19:00,76.5,51.0,27.08,SE,131,7.6,7.6,32,0.00,,---,0.04,VWS V14.01,2013-02-22 04:19:00,
2013-02-21 22:24:00,76.5,51.0,27.05,SE,139,8.1,8.7,32,0.00,,---,0.04,VWS V14.01,2013-02-22 04:24:00,
2013-02-21 22:29:00,76.5,51.0,27.05,ESE,123,5.4,6.3,32,0.00,,---,0.04,VWS V14.01,2013-02-22 04:29:00,
2013-02-21 22:34:00,76.5,51.0,27.05,SE,137,10.5,10.5,32,0.00,,---,0.04,VWS V14.01,2013-02-22 04:34:00,
2013-02-21 22:39:00,76.5,51.0,27.08,SE,141,8.7,8.7,32,0.00,,---,0.04,VWS V14.01,2013-02-22 04:39:00,
2013-02-21 22:44:00,76.5,51.0,27.08,SSE,152,7.2,12.8,32,0.00,,---,0.04,VWS V14.01,2013-02-22 04:44:00,
2013-02-21 22:49:00,76.5,51.0,27.08,ESE,116,4.0,5.8,32,0.00,,---,0.04,VWS V14.01,2013-02-22 04:49:00,
2013-02-21 22:54:00,76.5,51.0,27.08,SE,136,7.6,8.7,32,0.00,,---,0.04,VWS V14.01,2013-02-22 04:54:00,
2013-02-21 22:59:00,76.5,51.0,27.08,South,183,15.0,15.0,32,0.00,,---,0.04,VWS V14.01,2013-02-22 04:59:00,
2013-02-21 23:00:00,76.5,51.0,27.08,SE,135,9.6,15.0,32,0.00,,---,0.04,VWS V14.01,2013-02-22 05:00:00,
2013-02-21 23:05:00,76.5,51.0,27.08,East,98,4.9,5.8,32,0.00,,---,0.04,VWS V14.01,2013-02-22 05:05:00,
2013-02-21 23:10:00,76.5,51.0,27.05,SSE,156,8.1,8.1,32,0.00,,---,0.04,VWS V14.01,2013-02-22 05:10:00,
2013-02-21 23:15:00,76.5,51.0,27.05,SSE,149,11.0,13.2,32,0.00,,---,0.04,VWS V14.01,2013-02-22 05:15:00,
2013-02-21 23:20:00,76.5,51.0,27.05,SE,129,12.3,12.3,32,0.00,,---,0.04,VWS V14.01,2013-02-22 05:20:00,
2013-02-21 23:25:00,76.5,51.0,27.05,ESE,116,8.7,12.8,32,0.00,,---,0.04,VWS V14.01,2013-02-22 05:25:00,
2013-02-21 23:30:00,76.5,51.0,27.05,SE,136,7.6,7.6,32,0.00,,---,0.04,VWS V14.01,2013-02-22 05:30:00,
2013-02-21 23:35:00,76.5,51.0,27.05,East,97,5.8,5.8,32,0.00,,---,0.04,VWS V14.01,2013-02-22 05:35:00,
2013-02-21 23:40:00,76.5,51.0,27.05,SE,132,5.8,7.2,32,0.00,,---,0.04,VWS V14.01,2013-02-22 05:40:00,
2013-02-21 23:45:00,76.5,51.0,27.05,ESE,119,6.3,8.3,32,0.00,,---,0.04,VWS V14.01,2013-02-22 05:45:00,
2013-02-21 23:50:00,76.5,51.0,27.05,SE,142,3.6,4.0,32,0.00,,---,0.04,VWS V14.01,2013-02-22 05:50:00,
2013-02-21 23:55:00,76.5,51.0,27.05,SE,129,5.4,7.6,32,0.00,,---,0.04,VWS V14.01,2013-02-22 05:55:00,